Quick Links (Output Below):   Max & Min Temps   /   Climate Reports   /   Zone Forecasts
River Forecasts   /   Forestry Forecasts   /   Aviation Forecasts   /   Radars   /   Features

Terminal Aerodrome Forecast (Mountain Home)

Pick a Site:
Arkadelphia | El Dorado | Fayetteville | Fort Smith | Harrison | Highfill | Hot Springs | Jonesboro
Little Rock | Monticello | Mountain Home | Pine Bluff | Texarkana
 Forecast 

KBPK 041720Z 0418/0518 33014G24KT P6SM SKC
     FM050100 32006KT P6SM SKC=


 Latest METARs (Observations) 
How to Decode METARs
19Z KBPK 041853Z AUTO 36009G21KT 9SM CLR 23/03 A2985 RMK AO2 SLP104
         T02280033
         
18Z KBPK 041753Z AUTO 32007KT 220V010 10SM CLR 22/04 A2986 RMK AO2
         SLP105 T02220039 10222 20100 50002
         
17Z KBPK 041653Z AUTO 34009G19KT 310V030 9SM CLR 22/05 A2986 RMK AO2
         SLP105 T02220050
         
16Z KBPK 041553Z AUTO 32008G21KT 10SM CLR 21/08 A2985 RMK AO2 SLP103
         T02060083
         
15Z KBPK 041453Z AUTO 29007KT 250V340 10SM FEW095 19/09 A2985 RMK AO2
         SLP103 T01940089 56008
         
14Z KBPK 041353Z AUTO VRB05KT 10SM CLR 17/09 A2986 RMK AO2 SLP106
         T01720094
         
13Z KBPK 041253Z AUTO 00000KT 10SM CLR 13/08 A2986 RMK AO2 SLP109
         T01330078
         
12Z KBPK 041153Z AUTO 00000KT 10SM CLR 10/06 A2987 RMK AO2 SLP112
         T01000061 10100 20078 56015 $
         
11Z KBPK 041053Z AUTO 23004KT 10SM CLR 10/06 A2988 RMK AO2 SLP114
         T01000056 $
         
10Z KBPK 040953Z AUTO 20004KT 10SM SCT070 BKN085 08/06 A2990 RMK AO2
         SLP121 T00830061 $
         
***** Today's Observations (Above) *****


Back to Main Page
http://www.srh.noaa.gov/lzk/qfcst.php

USA.gov is the U.S. government's official web portal to all federal, state and local government web resources and services.